This is the latest recevied weather packets stored in our database for station/object EA2BJM-15. If no packets are shown the sender has not sent any weather packets the latest 10 day(s).
| Time | Temp. | Humidity | Pressure | Rain* | Wind** | Luminosity | Snow |
|---|---|---|---|---|---|---|---|
| 1777893829 | 20° C | 47% | 1011.8 hPa | 0 mm | - | - | - |
| 1777892929 | 20.56° C | 47% | 1011.8 hPa | 0 mm | - | - | - |
| 1777892028 | 20.56° C | 48% | 1011.8 hPa | 0 mm | - | - | - |
| 1777891128 | 20° C | 52% | 1011.8 hPa | 0 mm | - | - | - |
| 1777890228 | 18.89° C | 56% | 1012.8 hPa | 0 mm | - | - | - |
| 1777889330 | 18.89° C | 57% | 1011.8 hPa | 0 mm | - | - | - |
| 1777888430 | 17.78° C | 61% | 1011.8 hPa | 0 mm | - | - | - |
| 1777887530 | 17.22° C | 64% | 1012.8 hPa | 0 mm | - | - | - |
| 1777886630 | 16.67° C | 68% | 1012.8 hPa | 0 mm | - | - | - |
| 1777885730 | 16.11° C | 69% | 1012.8 hPa | 0 mm | - | - | - |
| 1777884830 | 16.11° C | 70% | 1012.8 hPa | 0 mm | - | - | - |
| 1777883930 | 16.11° C | 70% | 1012.8 hPa | 0 mm | - | - | - |
| 1777883030 | 15.56° C | 72% | 1012.8 hPa | 0 mm | - | - | - |
| 1777882130 | 15.56° C | 73% | 1012.8 hPa | 0 mm | - | - | - |
| 1777881230 | 15.56° C | 74% | 1012.8 hPa | 0 mm | - | - | - |
| 1777880329 | 15° C | 76% | 1012.8 hPa | 0 mm | - | - | - |
| 1777879429 | 15° C | 77% | 1012.8 hPa | 0 mm | - | - | - |
| 1777878529 | 15° C | 77% | 1012.8 hPa | 0 mm | - | - | - |
| 1777877629 | 14.44° C | 78% | 1012.8 hPa | 0 mm | - | - | - |
| 1777876729 | 14.44° C | 78% | 1012.8 hPa | 0 mm | - | - | - |
| 1777875829 | 14.44° C | 77% | 1012.8 hPa | 0 mm | - | - | - |
| 1777874929 | 14.44° C | 76% | 1012.8 hPa | 0 mm | - | - | - |
| 1777874030 | 14.44° C | 74% | 1011.8 hPa | 0 mm | - | - | - |
| 1777873130 | 14.44° C | 74% | 1011.8 hPa | 0 mm | - | - | - |
| 1777872230 | 14.44° C | 74% | 1011.8 hPa | 0 mm | - | - | - |
* Rain latest hour (hover to see other rain measurements)
** Current wind speed in m/s (hover to see current wind gust speed)